Time;durP1;ratioP1;P1;durP2;ratioP2;P2;SDS_P1;SDS_P2;PMS_P1;PMS_P2;Temp;Humidity;BMP_temperature;BMP_pressure;BME280_temperature;BME280_humidity;BME280_pressure;Samples;Min_cycle;Max_cycle;Signal;HPM_P1;HPM_P2
2022/03/28 00:00:09;;;;;;;13.23;10.53;;;8.70;1.00;;;;;;5066782;28;20202;-57
2022/03/28 00:02:40;;;;;;;13.87;10.47;;;9.40;1.00;;;;;;5068894;28;20441;-57
2022/03/28 00:05:06;;;;;;;13.43;10.13;;;9.40;1.00;;;;;;5050590;28;20478;-58
2022/03/28 00:07:32;;;;;;;15.27;11.27;;;9.30;1.00;;;;;;5069755;28;20437;-58
2022/03/28 00:09:57;;;;;;;13.50;10.33;;;9.30;1.00;;;;;;5066001;28;20452;-57
2022/03/28 00:12:23;;;;;;;15.60;11.67;;;9.30;1.00;;;;;;5068490;28;20233;-58
2022/03/28 00:14:48;;;;;;;14.10;10.77;;;9.30;1.00;;;;;;5068483;28;20273;-58
2022/03/28 00:17:14;;;;;;;14.13;10.97;;;9.20;1.00;;;;;;5063529;28;20573;-58
2022/03/28 00:19:40;;;;;;;14.57;11.20;;;9.10;1.00;;;;;;5065720;28;20199;-57
2022/03/28 00:22:05;;;;;;;14.70;9.83;;;9.20;1.00;;;;;;5069399;28;20191;-57
2022/03/28 00:24:31;;;;;;;14.43;10.60;;;9.20;1.00;;;;;;5068899;28;20253;-58
2022/03/28 00:26:57;;;;;;;11.47;10.30;;;9.10;1.00;;;;;;5066279;28;20242;-58
2022/03/28 00:29:23;;;;;;;14.20;9.80;;;9.10;1.00;;;;;;5064601;28;20677;-58
2022/03/28 00:31:49;;;;;;;12.63;10.40;;;9.10;1.00;;;;;;5068345;28;20438;-57
2022/03/28 00:34:21;;;;;;;14.37;11.20;;;9.10;1.00;;;;;;5045764;28;20453;-57
2022/03/28 00:36:47;;;;;;;13.00;10.77;;;9.00;1.00;;;;;;5067312;28;20510;-57
2022/03/28 00:39:13;;;;;;;13.00;9.60;;;9.00;1.00;;;;;;5067845;28;20465;-57
2022/03/28 00:41:38;;;;;;;13.10;9.40;;;9.00;1.00;;;;;;5067654;28;20446;-57
2022/03/28 00:44:06;;;;;;;13.20;9.97;;;8.90;1.00;;;;;;5067373;28;20190;-57
2022/03/28 00:46:32;;;;;;;12.00;9.83;;;8.80;1.00;;;;;;5067973;28;20214;-56
2022/03/28 00:48:58;;;;;;;12.30;9.50;;;8.90;1.00;;;;;;5071244;28;20961;-58
2022/03/28 00:51:24;;;;;;;14.83;10.23;;;8.90;1.00;;;;;;5070755;28;20416;-57
2022/03/28 00:53:50;;;;;;;13.87;9.73;;;8.90;1.00;;;;;;5068185;28;20187;-57
2022/03/28 00:56:16;;;;;;;11.53;8.83;;;8.80;1.00;;;;;;5068348;28;20190;-57
2022/03/28 00:58:42;;;;;;;12.60;9.43;;;8.80;1.00;;;;;;5065055;28;20834;-58
2022/03/28 01:01:09;;;;;;;12.23;9.10;;;8.70;1.00;;;;;;5065300;28;20194;-56
2022/03/28 01:03:36;;;;;;;12.00;9.47;;;8.70;1.00;;;;;;5070604;28;20539;-58
2022/03/28 01:06:02;;;;;;;12.23;9.87;;;8.70;1.00;;;;;;5070596;28;20464;-59
2022/03/28 01:08:27;;;;;;;12.50;9.50;;;8.70;1.00;;;;;;5066818;28;20574;-56
2022/03/28 01:10:56;;;;;;;15.97;10.60;;;8.70;1.00;;;;;;5067089;28;20218;-58
2022/03/28 01:13:23;;;;;;;11.67;9.57;;;8.70;1.00;;;;;;5048931;28;20191;-57
2022/03/28 01:15:49;;;;;;;12.90;9.07;;;8.60;1.00;;;;;;5068058;28;20452;-56
2022/03/28 01:18:15;;;;;;;11.03;8.30;;;8.60;1.00;;;;;;5067344;28;20449;-57
2022/03/28 01:20:41;;;;;;;13.00;9.50;;;8.60;1.00;;;;;;5071617;28;20278;-57
2022/03/28 01:23:09;;;;;;;12.93;9.17;;;8.60;1.00;;;;;;5069346;28;20977;-57
2022/03/28 01:25:35;;;;;;;11.70;7.70;;;8.60;1.00;;;;;;5070567;28;20458;-58
2022/03/28 01:28:01;;;;;;;11.80;8.40;;;8.60;1.00;;;;;;5068011;28;20502;-57
2022/03/28 01:30:29;;;;;;;11.33;9.47;;;8.50;1.00;;;;;;5066191;28;20532;-57
2022/03/28 01:32:56;;;;;;;11.60;8.67;;;8.50;1.00;;;;;;5069257;28;20445;-57
2022/03/28 01:35:34;;;;;;;11.97;8.57;;;8.40;1.00;;;;;;5065816;28;21576;-57
2022/03/28 01:38:01;;;;;;;10.37;8.40;;;8.40;1.00;;;;;;5070234;28;20540;-57
2022/03/28 01:40:27;;;;;;;10.40;8.03;;;8.40;1.00;;;;;;5071179;28;20468;-56
2022/03/28 01:42:53;;;;;;;13.47;9.67;;;8.40;1.00;;;;;;5071582;28;20480;-57
2022/03/28 01:45:19;;;;;;;12.43;8.20;;;8.30;1.00;;;;;;5071582;28;20465;-57
2022/03/28 01:47:46;;;;;;;13.57;9.40;;;8.30;1.00;;;;;;5071016;28;20249;-57
2022/03/28 01:50:11;;;;;;;12.30;9.20;;;8.30;1.00;;;;;;5067895;28;20193;-56
2022/03/28 01:52:37;;;;;;;10.83;9.40;;;8.20;1.00;;;;;;5069141;28;20816;-56
2022/03/28 01:55:04;;;;;;;15.37;9.80;;;8.20;1.00;;;;;;5071426;28;20213;-57
2022/03/28 01:57:29;;;;;;;12.23;9.97;;;8.20;1.00;;;;;;5070741;28;20551;-58
2022/03/28 01:59:55;;;;;;;10.97;8.23;;;;;;;;;;5067804;28;20453;-57
2022/03/28 02:02:21;;;;;;;11.37;8.63;;;8.20;1.00;;;;;;5065390;28;20259;-57
2022/03/28 02:04:47;;;;;;;12.30;9.20;;;8.20;1.00;;;;;;5061251;28;20464;-57
2022/03/28 02:07:12;;;;;;;12.60;9.47;;;8.10;1.00;;;;;;5060449;28;20687;-56
2022/03/28 02:09:38;;;;;;;12.40;9.13;;;8.00;1.00;;;;;;5048786;28;20318;-56
2022/03/28 02:12:04;;;;;;;12.97;9.10;;;8.00;1.00;;;;;;5071190;28;20270;-56
2022/03/28 02:14:29;;;;;;;13.57;9.40;;;7.90;1.00;;;;;;5066311;28;20220;-55
2022/03/28 02:16:55;;;;;;;11.80;9.40;;;8.00;1.00;;;;;;5065087;28;20447;-57
2022/03/28 02:19:20;;;;;;;11.70;8.87;;;8.00;1.00;;;;;;5069142;28;20696;-56
2022/03/28 02:21:46;;;;;;;12.47;8.63;;;8.00;1.00;;;;;;5069887;28;20219;-58
2022/03/28 02:24:11;;;;;;;13.00;9.00;;;8.00;1.00;;;;;;5070010;28;20286;-57
2022/03/28 02:26:38;;;;;;;12.17;9.10;;;8.00;1.00;;;;;;5069019;28;20238;-58
2022/03/28 02:29:03;;;;;;;10.60;8.50;;;8.00;1.00;;;;;;5065872;28;20253;-57
2022/03/28 02:31:29;;;;;;;12.80;8.90;;;7.80;1.00;;;;;;5064177;28;20440;-55
2022/03/28 02:33:55;;;;;;;13.23;9.57;;;7.80;1.00;;;;;;5068021;28;20191;-59
2022/03/28 02:36:21;;;;;;;13.33;9.40;;;7.80;1.00;;;;;;5067135;28;20179;-57
2022/03/28 02:38:46;;;;;;;11.40;8.97;;;7.80;1.00;;;;;;5070262;28;20450;-57
2022/03/28 02:41:13;;;;;;;12.20;8.30;;;7.80;1.00;;;;;;5069936;28;20179;-57
2022/03/28 02:43:39;;;;;;;12.70;8.43;;;7.80;1.00;;;;;;5070228;28;20225;-57
2022/03/28 02:46:04;;;;;;;14.03;9.33;;;7.80;1.00;;;;;;5066187;28;20468;-55
2022/03/28 02:48:30;;;;;;;11.83;8.63;;;7.80;1.00;;;;;;5068836;28;20445;-57
2022/03/28 02:50:56;;;;;;;12.97;9.80;;;7.70;1.00;;;;;;5065950;28;20223;-57
2022/03/28 02:53:22;;;;;;;13.43;10.30;;;7.70;1.00;;;;;;5070238;28;20483;-57
2022/03/28 02:55:47;;;;;;;11.67;8.83;;;7.70;1.00;;;;;;5068728;28;20288;-57
2022/03/28 02:58:13;;;;;;;11.30;8.83;;;7.60;1.00;;;;;;5065428;28;20179;-56
2022/03/28 03:00:38;;;;;;;12.33;9.00;;;7.60;1.00;;;;;;5060876;28;20192;-57
2022/03/28 03:03:04;;;;;;;12.10;9.63;;;7.60;1.00;;;;;;5066110;28;20183;-58
2022/03/28 03:05:29;;;;;;;11.13;8.40;;;7.60;1.00;;;;;;5068729;28;20612;-57
2022/03/28 03:07:55;;;;;;;11.10;8.33;;;7.50;1.00;;;;;;5067028;28;20223;-57
2022/03/28 03:10:21;;;;;;;12.37;9.93;;;7.50;1.00;;;;;;5067794;28;20199;-57
2022/03/28 03:12:47;;;;;;;11.23;8.90;;;7.50;1.00;;;;;;5069536;28;20202;-57
2022/03/28 03:15:12;;;;;;;12.30;9.30;;;7.50;1.00;;;;;;5067419;28;20528;-57
2022/03/28 03:17:38;;;;;;;13.10;8.33;;;7.40;1.00;;;;;;5066301;28;20678;-57
2022/03/28 03:20:05;;;;;;;13.77;10.00;;;7.50;1.00;;;;;;5064582;28;20206;-58
2022/03/28 03:22:32;;;;;;;11.30;8.57;;;8.40;1.00;;;;;;5066523;28;20184;-57
2022/03/28 03:24:58;;;;;;;11.93;9.40;;;7.50;1.00;;;;;;5064355;28;21021;-58
2022/03/28 03:27:24;;;;;;;10.43;8.10;;;7.40;1.00;;;;;;5068386;28;20560;-57
2022/03/28 03:29:50;;;;;;;12.67;9.30;;;7.40;1.00;;;;;;5068231;28;20487;-57
2022/03/28 03:32:15;;;;;;;13.67;9.27;;;7.40;1.00;;;;;;5065296;28;20179;-57
2022/03/28 03:34:41;;;;;;;12.30;9.43;;;7.40;1.00;;;;;;5067717;28;20491;-57
2022/03/28 03:37:09;;;;;;;12.30;9.67;;;7.40;1.00;;;;;;5068986;28;20230;-57
2022/03/28 03:39:38;;;;;;;10.50;8.60;;;7.30;1.00;;;;;;5066423;28;20618;-57
2022/03/28 03:42:04;;;;;;;11.37;9.37;;;7.30;1.00;;;;;;5066025;28;20449;-57
2022/03/28 03:44:29;;;;;;;15.80;9.77;;;7.30;1.00;;;;;;5067462;28;20502;-58
2022/03/28 03:46:55;;;;;;;14.43;8.97;;;7.30;1.00;;;;;;5064811;28;20958;-57
2022/03/28 03:49:20;;;;;;;12.60;9.00;;;7.20;1.00;;;;;;5066816;28;20271;-58
2022/03/28 03:51:46;;;;;;;14.03;9.37;;;7.20;1.00;;;;;;5063837;28;20211;-56
2022/03/28 03:54:12;;;;;;;12.50;8.87;;;7.20;1.00;;;;;;5068988;28;20182;-57
2022/03/28 03:56:38;;;;;;;10.30;8.40;;;7.10;1.00;;;;;;5067735;28;20201;-56
2022/03/28 03:59:04;;;;;;;11.30;9.27;;;7.10;1.00;;;;;;5067692;28;20537;-57
2022/03/28 04:01:29;;;;;;;14.23;9.67;;;7.20;1.00;;;;;;5064219;28;20579;-57
2022/03/28 04:03:56;;;;;;;14.60;9.93;;;7.20;1.00;;;;;;5068578;28;20465;-56
2022/03/28 04:06:22;;;;;;;12.60;9.17;;;7.20;1.00;;;;;;5066369;28;20211;-56
2022/03/28 04:08:48;;;;;;;11.83;9.50;;;;;;;;;;5068013;28;20512;-58
2022/03/28 04:11:14;;;;;;;14.67;9.33;;;7.00;1.00;;;;;;5067849;28;20477;-56
2022/03/28 04:13:39;;;;;;;12.30;8.87;;;7.00;1.00;;;;;;5067939;28;20985;-57
2022/03/28 04:16:05;;;;;;;12.40;8.93;;;6.90;1.00;;;;;;5059190;28;20199;-56
2022/03/28 04:18:31;;;;;;;13.00;8.73;;;6.90;1.00;;;;;;5063958;28;20262;-57
2022/03/28 04:20:56;;;;;;;14.50;11.70;;;6.60;1.00;;;;;;5069211;28;20548;-58
2022/03/28 04:23:25;;;;;;;11.30;8.73;;;6.90;1.00;;;;;;5072123;28;20231;-58
2022/03/28 04:25:51;;;;;;;13.00;9.10;;;7.00;1.00;;;;;;5072094;28;20672;-57
2022/03/28 04:28:17;;;;;;;13.60;9.30;;;6.90;1.00;;;;;;5072650;28;20443;-57
2022/03/28 04:30:42;;;;;;;12.60;9.57;;;6.90;1.00;;;;;;5071325;28;20659;-59
2022/03/28 04:33:09;;;;;;;10.90;8.60;;;6.90;1.00;;;;;;5071348;28;20256;-57
2022/03/28 04:35:39;;;;;;;12.20;9.87;;;6.90;1.00;;;;;;5053770;28;20244;-56
2022/03/28 04:38:06;;;;;;;14.80;10.27;;;6.80;1.00;;;;;;5072210;28;20568;-56
2022/03/28 04:40:35;;;;;;;17.87;11.10;;;6.80;1.00;;;;;;5071614;28;20445;-56
2022/03/28 04:43:01;;;;;;;12.63;10.27;;;6.90;1.00;;;;;;5072537;28;20452;-57
2022/03/28 04:45:28;;;;;;;17.33;10.50;;;6.90;1.00;;;;;;5068306;28;20454;-57
2022/03/28 04:47:54;;;;;;;12.43;9.20;;;6.90;1.00;;;;;;5071122;28;20804;-57
2022/03/28 04:50:20;;;;;;;14.10;9.50;;;6.80;1.00;;;;;;5071930;28;20541;-56
2022/03/28 04:52:46;;;;;;;15.80;9.00;;;6.80;1.00;;;;;;5069762;28;20982;-57
2022/03/28 04:55:12;;;;;;;13.57;10.07;;;6.80;1.00;;;;;;5070326;28;20792;-57
2022/03/28 04:57:38;;;;;;;12.50;9.30;;;6.80;1.00;;;;;;5072110;28;20484;-57
2022/03/28 05:00:06;;;;;;;10.70;9.03;;;6.80;1.00;;;;;;5068362;28;20445;-58
2022/03/28 05:02:32;;;;;;;11.17;9.10;;;6.80;1.00;;;;;;5069881;28;20441;-58
2022/03/28 05:04:58;;;;;;;15.40;10.60;;;6.90;1.00;;;;;;5051146;28;20559;-58
2022/03/28 05:07:25;;;;;;;11.30;9.03;;;6.90;1.00;;;;;;5069686;28;20453;-58
2022/03/28 05:09:53;;;;;;;13.60;8.90;;;6.80;1.00;;;;;;5069909;28;20226;-56
2022/03/28 05:12:26;;;;;;;16.97;9.20;;;6.90;1.00;;;;;;5071765;28;20961;-56
2022/03/28 05:14:52;;;;;;;10.73;9.40;;;6.90;1.00;;;;;;5068419;28;20450;-58
2022/03/28 05:17:26;;;;;;;12.50;9.10;;;6.90;1.00;;;;;;5070148;28;21149;-56
2022/03/28 05:19:53;;;;;;;14.57;9.87;;;6.90;1.00;;;;;;5071228;28;20453;-56
2022/03/28 05:22:19;;;;;;;11.00;8.80;;;7.00;1.00;;;;;;5071775;28;20775;-57
2022/03/28 05:24:45;;;;;;;20.43;9.13;;;7.00;1.00;;;;;;5070949;28;20441;-58
2022/03/28 05:27:11;;;;;;;15.23;8.57;;;7.00;1.00;;;;;;5069936;28;20480;-57
2022/03/28 05:29:37;;;;;;;16.90;9.23;;;7.00;1.00;;;;;;5065742;28;20453;-57
2022/03/28 05:32:03;;;;;;;13.97;8.97;;;7.10;1.00;;;;;;5066006;28;20186;-57
2022/03/28 05:34:30;;;;;;;12.40;8.97;;;7.20;1.00;;;;;;5068514;28;20183;-58
2022/03/28 05:36:57;;;;;;;11.93;9.13;;;7.20;1.00;;;;;;5069831;28;21012;-57
2022/03/28 05:39:23;;;;;;;12.20;8.60;;;7.20;1.00;;;;;;5068281;28;20960;-57
2022/03/28 05:41:50;;;;;;;13.97;9.53;;;7.20;1.00;;;;;;5071668;28;20544;-58
2022/03/28 05:44:15;;;;;;;12.47;8.50;;;7.30;1.00;;;;;;5048494;28;20265;-58
2022/03/28 05:46:41;;;;;;;14.60;9.10;;;7.30;1.00;;;;;;5071873;28;20839;-57
2022/03/28 05:49:06;;;;;;;13.70;8.97;;;7.40;1.00;;;;;;5071926;28;20195;-58
2022/03/28 05:51:32;;;;;;;12.70;9.50;;;7.50;1.00;;;;;;5071121;28;20291;-57
2022/03/28 05:53:57;;;;;;;12.23;9.30;;;7.50;1.00;;;;;;5067635;28;20332;-55
2022/03/28 05:56:23;;;;;;;13.40;10.10;;;7.50;1.00;;;;;;5071969;28;20240;-57
2022/03/28 05:58:48;;;;;;;13.47;9.33;;;7.60;1.00;;;;;;5075750;28;20183;-58
2022/03/28 06:01:14;;;;;;;12.27;8.70;;;7.70;1.00;;;;;;5071181;28;20202;-58
2022/03/28 06:03:40;;;;;;;14.47;10.27;;;7.70;1.00;;;;;;5071752;28;20183;-57
2022/03/28 06:06:09;;;;;;;13.77;10.00;;;7.80;1.00;;;;;;5068986;28;20202;-56
2022/03/28 06:08:35;;;;;;;11.67;8.53;;;8.00;1.00;;;;;;5070879;28;20493;-57
2022/03/28 06:11:03;;;;;;;12.60;9.23;;;8.10;1.00;;;;;;5070935;28;20446;-56
2022/03/28 06:13:29;;;;;;;14.03;8.90;;;8.20;1.00;;;;;;5070693;28;20449;-57
2022/03/28 06:15:55;;;;;;;15.23;9.53;;;8.20;1.00;;;;;;5070934;28;20494;-57
2022/03/28 06:18:21;;;;;;;15.20;10.17;;;8.20;1.00;;;;;;5069652;28;20454;-55
2022/03/28 06:20:46;;;;;;;13.00;9.10;;;8.40;1.00;;;;;;5069758;28;20187;-56
2022/03/28 06:23:12;;;;;;;15.10;9.60;;;8.40;1.00;;;;;;5068360;28;20256;-57
2022/03/28 06:25:38;;;;;;;14.53;9.90;;;8.60;1.00;;;;;;5070797;28;20362;-57
2022/03/28 06:28:04;;;;;;;15.70;9.93;;;8.70;1.00;;;;;;5068512;28;20187;-57
2022/03/28 06:30:29;;;;;;;13.90;9.73;;;8.70;1.00;;;;;;5065026;28;20451;-58
2022/03/28 06:32:55;;;;;;;14.40;10.27;;;9.00;1.00;;;;;;5061570;28;20558;-58
2022/03/28 06:35:21;;;;;;;11.70;10.50;;;9.20;1.00;;;;;;5071603;28;20542;-58
2022/03/28 06:37:50;;;;;;;15.50;9.53;;;9.30;1.00;;;;;;5071482;28;20183;-57
2022/03/28 06:40:16;;;;;;;10.07;8.73;;;9.30;1.00;;;;;;5070624;28;20180;-57
2022/03/28 06:42:42;;;;;;;14.20;9.87;;;9.60;1.00;;;;;;5069759;28;20959;-57
2022/03/28 06:45:10;;;;;;;11.03;9.20;;;9.70;1.00;;;;;;5069930;28;20437;-57
2022/03/28 06:47:35;;;;;;;12.73;9.60;;;9.70;1.00;;;;;;5070835;28;20657;-59
2022/03/28 06:50:01;;;;;;;11.47;9.27;;;9.80;1.00;;;;;;5071670;28;20453;-57
2022/03/28 06:52:27;;;;;;;15.70;10.90;;;9.90;1.00;;;;;;5070699;28;20339;-57
2022/03/28 06:55:22;;;;;;;12.23;9.30;;;10.00;1.00;;;;;;5070798;28;20803;-59
2022/03/28 06:57:48;;;;;;;14.63;11.17;;;10.10;1.00;;;;;;5059644;28;20227;-59
2022/03/28 07:00:14;;;;;;;15.43;10.53;;;10.20;1.00;;;;;;5070556;28;20472;-57
2022/03/28 07:02:40;;;;;;;12.43;9.83;;;10.30;1.00;;;;;;5070351;28;20540;-58
2022/03/28 07:05:07;;;;;;;13.17;9.90;;;10.50;1.00;;;;;;5070292;28;20461;-59
2022/03/28 07:07:43;;;;;;;15.00;10.53;;;10.70;1.00;;;;;;5069769;28;20473;-58
2022/03/28 07:10:11;;;;;;;14.40;10.33;;;10.80;1.00;;;;;;5068336;28;20445;-58
2022/03/28 07:12:37;;;;;;;13.57;9.83;;;13.80;1.00;;;;;;5070032;28;20434;-58
2022/03/28 07:15:04;;;;;;;16.77;9.97;;;10.90;1.00;;;;;;5069830;28;20853;-58
2022/03/28 07:17:29;;;;;;;16.27;10.90;;;11.00;1.00;;;;;;5069763;28;20445;-58
2022/03/28 07:19:55;;;;;;;13.53;10.00;;;11.00;1.00;;;;;;5069023;28;20973;-57
2022/03/28 07:22:20;;;;;;;12.10;10.10;;;11.30;1.00;;;;;;5070681;28;20704;-58
2022/03/28 07:24:48;;;;;;;14.20;10.80;;;11.60;1.00;;;;;;5070759;28;20229;-58
2022/03/28 07:27:14;;;;;;;15.23;9.90;;;11.70;1.00;;;;;;5070063;28;20644;-58
2022/03/28 07:29:43;;;;;;;18.10;10.80;;;11.60;1.00;;;;;;5068879;28;20441;-58
2022/03/28 07:32:09;;;;;;;13.97;11.13;;;11.80;1.00;;;;;;5069814;28;20442;-58
2022/03/28 07:34:35;;;;;;;11.30;9.90;;;12.10;1.00;;;;;;5069750;28;20499;-58
2022/03/28 07:37:05;;;;;;;15.00;10.07;;;12.00;1.00;;;;;;5066530;28;20818;-57
2022/03/28 07:39:33;;;;;;;11.93;10.07;;;;;;;;;;5069538;28;20187;-58
2022/03/28 07:41:58;;;;;;;11.60;10.00;;;12.30;1.00;;;;;;5068417;28;20446;-57
2022/03/28 07:44:24;;;;;;;12.30;10.03;;;12.50;1.00;;;;;;5069379;28;20448;-57
2022/03/28 07:46:50;;;;;;;11.77;9.80;;;12.50;1.00;;;;;;5069482;28;20286;-58
2022/03/28 07:49:18;;;;;;;14.57;11.57;;;12.60;1.00;;;;;;5071428;28;20282;-58
2022/03/28 07:51:45;;;;;;;14.90;11.17;;;12.70;1.00;;;;;;5067316;28;20620;-57
2022/03/28 07:54:11;;;;;;;13.67;11.23;;;12.70;1.00;;;;;;5068308;28;20532;-57
2022/03/28 07:56:37;;;;;;;13.90;11.43;;;12.90;1.00;;;;;;5050043;28;20458;-58
2022/03/28 07:59:03;;;;;;;11.87;9.60;;;13.20;1.00;;;;;;5066094;28;20479;-59
2022/03/28 08:01:28;;;;;;;15.83;11.50;;;13.20;1.00;;;;;;5067115;28;20542;-60
2022/03/28 08:03:54;;;;;;;16.90;11.50;;;13.50;1.00;;;;;;5069061;28;20223;-59
2022/03/28 08:06:20;;;;;;;16.50;11.87;;;;;;;;;;5048461;28;20687;-58
2022/03/28 08:08:46;;;;;;;16.50;11.10;;;12.30;1.00;;;;;;5065939;28;20262;-59
2022/03/28 08:11:12;;;;;;;13.33;11.27;;;13.80;1.00;;;;;;5065334;28;20550;-59
2022/03/28 08:13:37;;;;;;;24.87;13.53;;;13.90;1.00;;;;;;5049370;28;20324;-59
2022/03/28 08:16:06;;;;;;;14.07;11.87;;;14.10;1.00;;;;;;5065521;28;20191;-58
2022/03/28 08:18:33;;;;;;;11.87;10.50;;;14.10;1.00;;;;;;5067835;28;20206;-59
2022/03/28 08:20:58;;;;;;;18.33;11.90;;;14.40;1.00;;;;;;5066953;28;20458;-58
2022/03/28 08:23:24;;;;;;;15.03;11.37;;;14.40;1.00;;;;;;5069665;28;20480;-58
2022/03/28 08:25:51;;;;;;;13.10;11.07;;;14.60;1.00;;;;;;5069538;28;20207;-58
2022/03/28 08:28:18;;;;;;;14.87;11.20;;;14.60;1.00;;;;;;5068627;28;20255;-58
2022/03/28 08:30:44;;;;;;;14.20;12.30;;;14.60;1.00;;;;;;5062438;28;20454;-59
2022/03/28 08:33:10;;;;;;;13.80;12.10;;;14.90;1.00;;;;;;5068921;28;20420;-58
2022/03/28 08:35:36;;;;;;;15.30;12.53;;;14.90;1.00;;;;;;5069535;28;20187;-58
2022/03/28 08:38:02;;;;;;;13.43;11.90;;;15.20;1.00;;;;;;5067826;28;20446;-58
2022/03/28 08:40:27;;;;;;;15.63;12.97;;;15.40;1.00;;;;;;5068338;28;20921;-58
2022/03/28 08:42:53;;;;;;;16.50;12.80;;;15.40;1.00;;;;;;5068402;28;20618;-58
2022/03/28 08:45:18;;;;;;;17.77;12.60;;;15.60;1.00;;;;;;5070048;28;20184;-58
2022/03/28 08:47:48;;;;;;;14.93;13.00;;;16.10;1.00;;;;;;5068766;28;20211;-58
2022/03/28 08:50:15;;;;;;;18.00;13.90;;;16.20;1.00;;;;;;5069149;28;20560;-58
2022/03/28 08:52:42;;;;;;;14.80;13.20;;;16.30;1.00;;;;;;5069740;28;20437;-58
2022/03/28 08:55:12;;;;;;;25.90;14.47;;;16.30;1.00;;;;;;5049054;28;20466;-59
2022/03/28 08:57:38;;;;;;;15.40;13.40;;;16.50;1.00;;;;;;5069219;28;20449;-59
2022/03/28 09:00:07;;;;;;;16.73;13.83;;;16.60;1.00;;;;;;5068402;28;20523;-60
2022/03/28 09:02:33;;;;;;;17.00;13.87;;;16.90;1.00;;;;;;5069230;28;20195;-59
2022/03/28 09:05:00;;;;;;;23.47;15.70;;;17.20;1.00;;;;;;5069227;28;20528;-58
2022/03/28 09:07:26;;;;;;;16.73;13.97;;;;;;;;;;5069913;28;20460;-59
2022/03/28 09:09:59;;;;;;;16.20;14.50;;;17.30;1.00;;;;;;5072585;28;20480;-59
2022/03/28 09:12:25;;;;;;;16.60;14.90;;;17.50;1.00;;;;;;5067089;28;20777;-59
2022/03/28 09:14:57;;;;;;;21.00;15.70;;;17.70;1.00;;;;;;5072672;28;20408;-58
2022/03/28 09:17:23;;;;;;;19.83;16.03;;;17.80;1.00;;;;;;5073315;28;20184;-59
2022/03/28 09:19:55;;;;;;;18.63;16.77;;;18.10;1.00;;;;;;5072559;28;20529;-60
2022/03/28 09:22:26;;;;;;;18.67;16.67;;;18.00;1.00;;;;;;5072511;28;20445;-58
2022/03/28 09:25:00;;;;;;;19.47;16.60;;;18.20;1.00;;;;;;5073080;28;20434;-58
2022/03/28 09:27:30;;;;;;;21.23;17.80;;;18.30;1.00;;;;;;5069246;28;20475;-58
2022/03/28 09:30:08;;;;;;;23.10;18.47;;;17.90;1.00;;;;;;5072005;28;20958;-58
2022/03/28 09:32:42;;;;;;;18.50;16.50;;;18.10;1.00;;;;;;5072118;28;20480;-59
2022/03/28 09:35:22;;;;;;;20.63;16.73;;;17.90;1.00;;;;;;5070244;28;20458;-58
2022/03/28 09:38:02;;;;;;;21.63;18.40;;;18.10;1.00;;;;;;5072255;28;20420;-58
2022/03/28 09:40:36;;;;;;;19.60;17.47;;;18.10;1.00;;;;;;5072173;28;20544;-58
2022/03/28 09:43:12;;;;;;;19.23;17.20;;;18.30;1.00;;;;;;5070216;28;20507;-59
2022/03/28 09:45:38;;;;;;;18.90;16.90;;;18.50;1.00;;;;;;5071108;28;20441;-59
2022/03/28 09:48:08;;;;;;;19.37;17.37;;;18.50;1.00;;;;;;5070095;28;20445;-59
2022/03/28 09:50:38;;;;;;;19.87;17.87;;;18.70;1.00;;;;;;5070976;28;20473;-58
2022/03/28 09:53:22;;;;;;;19.77;17.63;;;18.80;1.00;;;;;;5071764;28;20446;-60
2022/03/28 09:55:55;;;;;;;18.50;16.50;;;18.70;1.00;;;;;;5071886;28;20475;-57
2022/03/28 09:58:56;;;;;;;20.20;16.10;;;19.10;1.00;;;;;;5072375;28;20448;-60
2022/03/28 10:01:35;;;;;;;20.90;17.30;;;19.10;1.00;;;;;;5072410;28;20441;-60
2022/03/28 10:04:10;;;;;;;17.73;15.70;;;19.10;1.00;;;;;;5069665;28;20442;-59
2022/03/28 10:06:37;;;;;;;21.00;18.00;;;19.00;1.00;;;;;;5072251;28;20522;-60
2022/03/28 10:09:05;;;;;;;20.43;17.57;;;19.10;1.00;;;;;;5071196;28;20493;-58
2022/03/28 10:11:31;;;;;;;18.40;16.50;;;18.90;1.00;;;;;;5069443;28;20445;-58
2022/03/28 10:13:57;;;;;;;20.77;18.67;;;18.90;1.00;;;;;;5068887;28;20566;-60
2022/03/28 10:16:23;;;;;;;20.77;17.50;;;18.90;1.00;;;;;;5067386;28;20440;-59
2022/03/28 10:18:50;;;;;;;20.33;18.13;;;18.60;1.00;;;;;;5070459;28;20518;-59
2022/03/28 10:21:21;;;;;;;20.57;18.37;;;18.70;1.00;;;;;;5067009;28;20739;-59
2022/03/28 10:23:55;;;;;;;22.43;19.50;;;18.80;1.00;;;;;;5071959;28;20481;-59
2022/03/28 10:26:28;;;;;;;22.40;18.87;;;18.50;1.00;;;;;;5069008;28;20458;-60
2022/03/28 10:29:10;;;;;;;24.77;18.40;;;18.50;1.00;;;;;;5068386;28;20437;-58
2022/03/28 10:31:53;;;;;;;19.83;17.30;;;18.60;1.00;;;;;;5070907;28;20442;-60
2022/03/28 10:34:41;;;;;;;23.10;17.03;;;18.80;1.00;;;;;;5070849;28;20438;-59
2022/03/28 10:37:26;;;;;;;24.83;18.70;;;18.90;1.00;;;;;;5063749;28;20849;-59
2022/03/28 10:40:11;;;;;;;21.10;18.37;;;19.10;1.00;;;;;;5071389;28;20430;-59
2022/03/28 10:42:44;;;;;;;22.67;17.37;;;19.20;1.00;;;;;;5071370;28;20449;-58
2022/03/28 10:45:10;;;;;;;15.80;14.20;;;19.60;1.00;;;;;;5071264;28;20415;-59
2022/03/28 10:47:56;;;;;;;14.20;12.70;;;19.50;1.00;;;;;;5071355;28;20440;-58
2022/03/28 10:50:34;;;;;;;15.70;14.07;;;19.50;1.00;;;;;;5071412;28;20429;-58
2022/03/28 10:53:02;;;;;;;17.23;13.67;;;19.20;1.00;;;;;;5068628;28;20458;-58
2022/03/28 10:55:43;;;;;;;16.73;13.73;;;19.20;1.00;;;;;;5071647;28;20433;-60
2022/03/28 10:58:35;;;;;;;14.30;12.80;;;19.40;1.00;;;;;;5070891;28;20425;-58
2022/03/28 11:01:11;;;;;;;18.80;16.23;;;19.30;1.00;;;;;;5071047;28;20757;-59
2022/03/28 11:03:40;;;;;;;15.60;14.00;;;19.10;1.00;;;;;;5071125;28;20430;-58
2022/03/28 11:06:06;;;;;;;16.80;15.20;;;19.20;1.00;;;;;;5070960;28;20447;-59
2022/03/28 11:08:46;;;;;;;17.30;15.47;;;19.30;1.00;;;;;;5070690;28;20823;-59
2022/03/28 11:11:15;;;;;;;19.57;16.90;;;19.20;1.00;;;;;;5070882;28;20183;-58
2022/03/28 11:13:41;;;;;;;20.83;14.27;;;19.50;1.00;;;;;;5070597;28;20992;-59
2022/03/28 11:16:19;;;;;;;17.97;16.07;;;19.80;1.00;;;;;;5070538;28;20465;-59
2022/03/28 11:19:04;;;;;;;16.37;14.67;;;19.70;1.00;;;;;;5070712;28;20274;-59
2022/03/28 11:21:30;;;;;;;18.97;16.53;;;19.70;1.00;;;;;;5070280;28;20449;-59
2022/03/28 11:24:09;;;;;;;17.03;15.27;;;19.70;1.00;;;;;;5070869;28;20518;-60
2022/03/28 11:26:36;;;;;;;17.50;13.97;;;19.80;1.00;;;;;;5070830;28;20217;-59
2022/03/28 11:29:06;;;;;;;15.30;13.73;;;19.80;1.00;;;;;;5070561;28;20406;-59
2022/03/28 11:31:35;;;;;;;14.07;12.70;;;19.60;1.00;;;;;;5069955;28;20441;-61
2022/03/28 11:34:09;;;;;;;13.00;11.10;;;19.60;1.00;;;;;;5070230;28;20541;-60
2022/03/28 11:36:37;;;;;;;12.93;11.63;;;19.80;1.00;;;;;;5070772;28;20446;-60
2022/03/28 11:39:04;;;;;;;13.10;11.87;;;19.40;1.00;;;;;;5070419;28;20449;-60
2022/03/28 11:41:30;;;;;;;12.13;10.50;;;19.60;1.00;;;;;;5068911;28;20449;-60
2022/03/28 11:43:57;;;;;;;13.83;11.63;;;19.60;1.00;;;;;;5070140;28;20472;-60
2022/03/28 11:46:30;;;;;;;13.10;10.73;;;19.60;1.00;;;;;;5070487;28;20199;-59
2022/03/28 11:48:58;;;;;;;12.70;10.37;;;19.50;1.00;;;;;;5069293;28;20544;-59
2022/03/28 11:51:26;;;;;;;12.60;11.40;;;19.80;1.00;;;;;;5070676;28;20487;-60
2022/03/28 11:53:51;;;;;;;12.13;10.90;;;20.20;1.00;;;;;;5070259;28;20425;-59
2022/03/28 11:56:28;;;;;;;13.40;11.90;;;20.10;1.00;;;;;;5070518;28;20449;-59
2022/03/28 11:59:02;;;;;;;14.80;13.30;;;20.10;1.00;;;;;;5050647;28;20186;-59
2022/03/28 12:01:28;;;;;;;14.10;12.67;;;20.60;1.00;;;;;;5069516;28;20877;-61
2022/03/28 12:03:54;;;;;;;12.57;11.33;;;20.50;1.00;;;;;;5068914;28;20792;-61
2022/03/28 12:06:27;;;;;;;13.03;11.63;;;20.30;1.00;;;;;;5070275;28;20465;-60
2022/03/28 12:08:54;;;;;;;12.23;10.97;;;20.40;1.00;;;;;;5070638;28;20243;-59
2022/03/28 12:11:19;;;;;;;13.83;12.33;;;20.30;1.00;;;;;;5071739;28;20537;-59
2022/03/28 12:13:45;;;;;;;15.13;13.53;;;20.30;1.00;;;;;;5070505;28;20995;-58
2022/03/28 12:16:10;;;;;;;15.30;12.63;;;20.30;1.00;;;;;;5070231;28;20225;-59
2022/03/28 12:18:36;;;;;;;15.07;13.47;;;20.20;1.00;;;;;;5069218;28;20221;-58
2022/03/28 12:21:05;;;;;;;15.20;13.33;;;20.30;1.00;;;;;;5067879;28;20171;-59
2022/03/28 12:23:30;;;;;;;14.90;13.40;;;20.60;1.00;;;;;;5066258;28;20680;-59
2022/03/28 12:26:06;;;;;;;15.80;12.83;;;20.60;1.00;;;;;;5069486;28;20428;-58
2022/03/28 12:28:35;;;;;;;13.93;12.53;;;20.40;1.00;;;;;;5069640;28;20272;-58
2022/03/28 12:31:08;;;;;;;14.13;12.80;;;20.40;1.00;;;;;;5068233;28;20453;-58
2022/03/28 12:33:42;;;;;;;14.33;12.83;;;20.40;1.00;;;;;;5069604;28;20488;-60
2022/03/28 12:36:19;;;;;;;15.70;13.73;;;20.50;1.00;;;;;;5070891;28;20433;-59
2022/03/28 12:38:56;;;;;;;16.03;14.43;;;20.20;1.00;;;;;;5051002;28;21323;-58
2022/03/28 12:41:22;;;;;;;17.10;15.47;;;20.40;1.00;;;;;;5069891;28;20441;-58
2022/03/28 12:43:50;;;;;;;17.37;15.67;;;20.50;1.00;;;;;;5073416;28;20984;-58
2022/03/28 12:46:18;;;;;;;16.67;14.47;;;20.60;1.00;;;;;;5055297;28;20489;-58
2022/03/28 12:48:52;;;;;;;17.80;16.00;;;20.50;1.00;;;;;;5073304;28;20468;-58
2022/03/28 12:51:35;;;;;;;17.37;15.67;;;20.60;1.00;;;;;;5073867;28;20438;-59